• Join FlightAware (Why Join?)
  • Login
  • US Flag 
02:39AM EDT


 

Airport Tracker/Info


-or-


 

Live Flight TrackerFlight Track Log ✈ UPS35 ✈ 28-Apr-2013 ✈ YSSY / SYD - RKSI / ICN

Flight Track Log - Related Links

Times and Time Zones

All times are in EDT time to prevent confusion due to time zone crossing. See the UPS35 flight status page for this flight to view local times or setup timezone preferences in your user account.

Time Position Orientation Groundspeed Altitude Reporting Facility
EDT Latitude Longitude Course Direction KTS MPH feet Rate Location/Type
07:00AM -33.9320 151.1690 168° South 7 8  Level FlightAware
07:00AM -33.9330 151.1700 140° Southeast 9 10 120 Level FlightAware
07:01AM -33.9360 151.1710 165° South 14 16 120 Level FlightAware
07:01AM -33.9370 151.1710 180° South 14 16 120 Level FlightAware
07:02AM -33.9400 151.1720 165° South 17 20 120 Level FlightAware
07:03AM -33.9420 151.1730 157° South 17 20 120 Level FlightAware
07:03AM -33.9440 151.1730 180° South 17 20 120 Level FlightAware
07:04AM -33.9470 151.1740 165° South 19 22 180 Level FlightAware
07:04AM -33.9490 151.1750 157° South 23 26 180 Level FlightAware
07:04AM -33.9510 151.1750 180° South 17 20 180 Level FlightAware
07:05AM -33.9530 151.1760 157° South 19 22 240 Level FlightAware
07:05AM -33.9550 151.1760 180° South 17 20 240 Level FlightAware
07:06AM -33.9570 151.1770 157° South 20 23 240 Level FlightAware
07:06AM -33.9600 151.1770 180° South 17 20 300 Level FlightAware
07:07AM -33.9620 151.1780 157° South 18 21 360 Level FlightAware
07:07AM -33.9640 151.1790 157° South 13 15 420 Level FlightAware
07:08AM -33.9640 151.1810 90° East 11 13 600 Level FlightAware
07:08AM -33.9620 151.1800 337° Northwest 55 63 780 Level FlightAware
07:08AM -33.9450 151.1760 349° North 164 189 1,080 Level FlightAware
07:09AM -33.9220 151.1700 348° North 165 190 1,100 2,280 Climbing FlightAware
07:09AM -33.9030 151.1640 345° North 164 189 2,100 2,400 Climbing FlightAware
07:10AM -33.8930 151.1550 323° Northwest 174 200 2,700 1,980 Climbing FlightAware
07:10AM -33.8850 151.1440 311° West 190 219 3,100 1,200 Climbing FlightAware
07:10AM -33.8640 151.1160 312° West 248 285 3,600 1,860 Climbing FlightAware
07:11AM -33.8491 151.0949 312° West 241 277 4,500 2,160 Climbing Aus ATC (RADAR)
07:11AM -33.8460 151.0910 312° West 266 306 4,500 600 Level FlightAware
07:11AM -33.8380 151.0820 317° Northwest 264 304 4,700 900 Climbing FlightAware
07:11AM -33.8085 151.0434 317° Northwest 262 302 5,100 360 Climbing Aus ATC (RADAR)
07:11AM -33.8090 151.0450 317° Northwest 262 302 4,900 -420 Descending FlightAware
07:12AM -33.7840 151.0140 314° West 261 300 4,900 660 Level FlightAware
07:12AM -33.7579 150.9883 314° West 269 310 5,500 1,200 Climbing Aus ATC (RADAR)
07:12AM -33.7530 150.9860 314° West 278 320 5,500 1,260 Level FlightAware
07:13AM -33.7230 150.9700 336° Northwest 283 326 6,200 1,620 Climbing FlightAware
07:13AM -33.7001 150.9581 336° Northwest 284 327 6,600 1,200 Climbing Aus ATC (RADAR)
07:13AM -33.6840 150.9500 336° Northwest 323 372 6,800 1,320 Climbing FlightAware
07:14AM -33.6480 150.9280 333° Northwest 351 404 7,500 2,220 Climbing FlightAware
07:14AM -33.6209 150.9099 333° Northwest 347 399 8,300 2,400 Climbing Aus ATC (RADAR)
07:14AM -33.6020 150.8980 333° Northwest 386 444 8,700 2,760 Climbing FlightAware
07:14AM -33.5698 150.8750 333° Northwest 382 440 9,800 3,060 Climbing Aus ATC (RADAR)
07:15AM -33.5280 150.8490 333° Northwest 402 463 11,000 2,700 Climbing FlightAware
07:16AM -33.4610 150.8070 332° Northwest 414 476 12,900 3,240 Climbing FlightAware
07:16AM -33.4190 150.7805 332° Northwest 410 472 14,400 2,880 Climbing Aus ATC (RADAR)
07:16AM -33.4040 150.7720 332° Northwest 416 479 14,600 2,400 Climbing FlightAware
07:17AM -33.3544 150.7395 332° Northwest 408 470 15,900 2,880 Climbing Aus ATC (RADAR)
07:18AM -33.2153 150.6616 335° Northwest 430 495 19,500 2,340 Climbing Aus ATC (RADAR)
07:18AM -33.1970 150.6570 335° Northwest 433 498 19,700 2,100 Climbing FlightAware
07:19AM -33.1098 150.6312 335° Northwest 435 501 21,400 2,100 Climbing Aus ATC (RADAR)
07:19AM -33.1180 150.6340 335° Northwest 449 517 21,100 1,440 Descending FlightAware
07:20AM -33.0410 150.6100 335° Northwest 456 525 22,500 2,760 Climbing FlightAware
07:20AM -33.0128 150.6024 335° Northwest 455 524 23,100 1,500 Climbing Aus ATC (RADAR)
07:20AM -32.9690 150.5890 346° North 467 537 23,400 1,620 Climbing FlightAware
07:21AM -32.8269 150.5475 346° North 465 535 25,500 1,740 Climbing Aus ATC (RADAR)
07:21AM -32.8320 150.5490 346° North 479 551 25,300 1,620 Descending FlightAware
07:22AM -32.7236 150.5176 346° North 486 559 26,800 1,980 Climbing Aus ATC (RADAR)
07:22AM -32.7140 150.5150 346° North 482 555 26,800 2,040 Level FlightAware
07:23AM -32.6390 150.4920 346° North 482 555 28,300 2,940 Climbing FlightAware
07:23AM -32.5766 150.4739 346° North 465 535 29,700 2,400 Climbing Aus ATC (RADAR)
07:23AM -32.5410 150.4640 346° North 464 534 30,100 1,440 Climbing FlightAware
07:24AM -32.4570 150.4390 346° North 464 534 31,200 1,860 Climbing FlightAware
07:24AM -32.3956 150.4209 346° North 464 534 32,100 1,560 Climbing Aus ATC (RADAR)
07:25AM -32.3610 150.4120 346° North 463 533 32,400 1,740 Climbing FlightAware
07:26AM -32.2150 150.3690 346° North 446 513 34,800 1,920 Climbing FlightAware
07:26AM -32.1521 150.3502 346° North 457 526 35,500 1,020 Climbing Aus ATC (RADAR)
07:27AM -32.1340 150.3460 346° North 447 514 35,500 1,260 Level FlightAware
07:27AM -32.0852 150.3308 346° North 448 516 36,200 720 Climbing Aus ATC (RADAR)
07:27AM -32.0500 150.3210 346° North 447 514 36,000 60 Descending FlightAware
07:28AM -31.9785 150.2999 346° North 454 522 36,300  Climbing Aus ATC (RADAR)
07:28AM -31.9600 150.2950 346° North 446 513 36,000  Descending FlightAware
07:28AM -31.9114 150.2815 346° North 449 517 36,300  Climbing Aus ATC (RADAR)
07:29AM -31.8870 150.2740 346° North 447 514 36,000  Descending FlightAware
07:29AM -31.7991 150.2488 346° North 447 514 36,300  Climbing Aus ATC (RADAR)
07:29AM -31.7840 150.2450 346° North 454 522 36,000  Descending FlightAware
07:30AM -31.6970 150.2191 346° North 449 517 36,300  Climbing Aus ATC (RADAR)
07:30AM -31.7040 150.2210 346° North 453 521 36,000 -420 Descending FlightAware
07:31AM -31.6110 150.1950 347° North 447 514 36,000 300 Level FlightAware
07:31AM -31.5644 150.1816 347° North 447 514 36,300 540 Climbing Aus ATC (RADAR)
07:31AM -31.5335 150.1726 346° North 449 517 36,300 -840 Level Aus ATC (RADAR)
07:31AM -31.5290 150.1720 346° North 447 514 36,000  Descending FlightAware
07:32AM -31.4669 150.1537 346° North 454 522 36,300  Climbing Aus ATC (RADAR)
07:32AM -31.4370 150.1450 346° North 446 513 36,000  Descending FlightAware
07:33AM -31.3602 150.1230 346° North 446 513 36,300  Climbing Aus ATC (RADAR)
07:33AM -31.3550 150.1220 346° North 446 513 36,000  Descending FlightAware
07:34AM -31.2680 150.0969 346° North 449 517 36,300  Climbing Aus ATC (RADAR)
07:34AM -31.2650 150.0960 346° North 446 513 36,000  Descending FlightAware
07:34AM -31.1602 150.0674 346° North 457 526 36,300  Climbing Aus ATC (RADAR)
07:34AM -31.1600 150.0680 346° North 448 516 36,000  Descending FlightAware
07:35AM -31.0629 150.0402 346° North 451 519 36,300  Climbing Aus ATC (RADAR)
07:35AM -31.0680 150.0420 346° North 448 516 36,000 -480 Descending FlightAware
07:36AM -30.9880 150.0190 346° North 449 517 36,000 300 Level FlightAware
07:36AM -30.9343 150.0029 346° North 459 528 36,300  Climbing Aus ATC (RADAR)
07:37AM -30.8760 149.9850 346° North 450 518 36,000 -240 Descending FlightAware
07:38AM -30.7840 149.9610 347° North 461 531 36,000 240 Level FlightAware
07:38AM -30.7219 149.9434 347° North 458 527 36,300 420 Climbing Aus ATC (RADAR)
07:38AM -30.6905 149.9345 346° North 460 529 36,300 -1,080 Level Aus ATC (RADAR)
07:38AM -30.6950 149.9360 346° North 463 533 36,000  Descending FlightAware
07:39AM -30.6227 149.9152 346° North 463 533 36,300  Climbing Aus ATC (RADAR)
07:39AM -30.6240 149.9160 346° North 463 533 36,000 -360 Descending FlightAware
07:40AM -30.5530 149.8950 346° North 463 533 36,000 360 Level FlightAware
07:40AM -30.5072 149.8829 346° North 469 540 36,300 480 Climbing Aus ATC (RADAR)
07:40AM -30.4392 149.8641 346° North 461 531 36,300 -540 Level Aus ATC (RADAR)
07:40AM -30.4830 149.8750 346° North 463 533 36,000 -240 Descending FlightAware
07:41AM -30.3420 149.8370 347° North 460 529 36,100 300 Climbing FlightAware
07:41AM -30.2805 149.8221 347° North 465 535 36,400  Climbing Aus ATC (RADAR)
07:42AM -30.2720 149.8160 347° North 460 529 36,100 -180 Descending FlightAware
07:42AM -30.2054 149.8074 347° North 466 536 36,300  Climbing Aus ATC (RADAR)
07:42AM -30.2020 149.7960 347° North 460 529 36,100  Descending FlightAware
07:43AM -30.0940 149.7819 347° North 467 537 36,300  Climbing Aus ATC (RADAR)
07:43AM -30.1310 149.7760 350° North 460 529 36,100  Descending FlightAware
07:43AM -30.0618 149.7753 350° North 468 539 36,300 120 Climbing Aus ATC (RADAR)
07:44AM -29.9931 149.7610 350° North 462 532 36,200 -360 Descending Aus ATC (RADAR)
07:44AM -30.0610 149.7560 350° North 460 529 36,100 -120 Descending FlightAware
07:45AM -29.9730 149.7300 346° North 460 529 36,100 60 Level FlightAware
07:45AM -29.7973 149.7192 346° North 463 533 36,200  Climbing Aus ATC (RADAR)
07:45AM -29.9030 149.7100 346° North 460 529 36,100 -180 Descending FlightAware
07:46AM -29.8330 149.6900 346° North 460 529 36,100 180 Level FlightAware
07:46AM -29.6701 149.6926 346° North 465 535 36,300  Climbing Aus ATC (RADAR)
07:47AM -29.7630 149.6700 346° North 460 529 36,100  Descending FlightAware
07:47AM -29.5688 149.6703 346° North 464 534 36,300  Climbing Aus ATC (RADAR)
07:47AM -29.6930 149.6500 346° North 460 529 36,100 -240 Descending FlightAware
07:48AM -29.4554 149.6481 346° North 475 547 36,100  Level Aus ATC (RADAR)
07:48AM -29.6050 149.6240 346° North 460 529 36,100 240 Level FlightAware
07:49AM -29.3542 149.6240 346° North 470 541 36,300  Climbing Aus ATC (RADAR)
07:49AM -29.5350 149.6040 346° North 460 529 36,100 -300 Descending FlightAware
07:49AM -29.4640 149.5840 346° North 460 529 36,100  Level FlightAware
07:50AM -29.3940 149.5640 346° North 460 529 36,100 240 Level FlightAware
07:50AM -29.1722 149.5859 346° North 466 536 36,300 -120 Climbing Aus ATC (RADAR)
07:51AM -29.0295 149.5568 346° North 463 533 36,000 -240 Descending Aus ATC (RADAR)
07:51AM -28.9976 149.5508 351° North 463 533 36,000 360 Level Aus ATC (RADAR)
07:52AM -28.9293 149.5356 349° North 459 528 36,300  Climbing Aus ATC (RADAR)
07:53AM -28.8092 149.5090 349° North 462 532 36,000 -180 Descending Aus ATC (RADAR)
07:54AM -28.7153 149.4865 348° North 461 531 36,000 60 Level Aus ATC (RADAR)
07:55AM -28.5989 149.4610 349° North 465 535 36,100 180 Climbing Aus ATC (RADAR)
07:55AM -28.5271 149.4509 353° North 463 533 36,300 120 Climbing Aus ATC (RADAR)
07:56AM -28.3953 149.4188 348° North 469 540 36,300  Level Aus ATC (RADAR)
07:56AM -28.3630 149.4130 351° North 468 539 36,300  Level Aus ATC (RADAR)
07:57AM -28.2930 149.4024 352° North 464 534 36,300 -120 Level Aus ATC (RADAR)
07:58AM -28.1826 149.3763 348° North 465 535 36,200 -60 Descending Aus ATC (RADAR)
07:59AM -28.0905 149.3394 341° North 446 513 36,200  Level Aus ATC (RADAR)
07:59AM -27.9918 149.3031 342° North 445 512 36,200  Level Aus ATC (RADAR)
08:00AM -27.9231 149.2778 342° North 444 511 36,200  Level Aus ATC (RADAR)
08:01AM -27.8302 149.2405 340° North 447 514 36,200  Level Aus ATC (RADAR)
08:02AM -27.7444 149.2127 344° North 449 517 36,200 60 Level Aus ATC (RADAR)
08:02AM -27.6752 149.1879 342° North 446 513 36,300 60 Climbing Aus ATC (RADAR)
08:03AM -27.5741 149.1517 342° North 456 525 36,300  Level Aus ATC (RADAR)
08:03AM -27.5439 149.1408 342° North 456 525 36,300  Level Aus ATC (RADAR)
08:04AM -27.4835 149.1193 342° North 456 525 36,300  Level Aus ATC (RADAR)
08:05AM -27.3730 149.0791 342° North 454 522 36,300  Level Aus ATC (RADAR)
08:05AM -27.2828 149.0466 342° North 452 520 36,300 -60 Level Aus ATC (RADAR)
08:06AM -27.1728 149.0067 342° North 450 518 36,200 -60 Descending Aus ATC (RADAR)
08:07AM -27.0825 148.9739 342° North 453 521 36,200  Level Aus ATC (RADAR)
08:08AM -26.9733 148.9344 342° North 450 518 36,200  Level Aus ATC (RADAR)
08:08AM -26.9434 148.9239 343° North 450 518 36,200  Level Aus ATC (RADAR)
08:09AM -26.8841 148.9024 342° North 449 517 36,200  Level Aus ATC (RADAR)
08:10AM -26.7751 148.8638 342° North 447 514 36,200  Level Aus ATC (RADAR)
08:10AM -26.7156 148.8425 342° North 449 517 36,200  Level Aus ATC (RADAR)
08:11AM -26.6250 148.8105 343° North 454 522 36,200 60 Level Aus ATC (RADAR)
08:12AM -26.5450 148.7828 343° North 451 519 36,300 60 Climbing Aus ATC (RADAR)
08:12AM -26.4729 148.7587 343° North 464 534 36,300  Level Aus ATC (RADAR)
08:13AM -26.3698 148.7301 346° North 458 527 36,300  Level Aus ATC (RADAR)
08:13AM -26.3390 148.7214 346° North 458 527 36,300 -180 Level Aus ATC (RADAR)
08:14AM -26.2770 148.7033 345° North 460 529 36,200 -120 Descending Aus ATC (RADAR)
08:15AM -26.1746 148.6732 345° North 453 521 36,200  Level Aus ATC (RADAR)
08:15AM -26.1230 148.6585 346° North 458 527 36,200  Level Aus ATC (RADAR)
08:16AM -26.0513 148.6379 346° North 457 526 36,200  Level Aus ATC (RADAR)
08:16AM -25.9398 148.6050 345° North 453 521 36,200  Level Aus ATC (RADAR)
08:17AM -25.8383 148.5755 345° North 452 520 36,200  Level Aus ATC (RADAR)
08:19AM -25.6752 148.5282 345° North 455 524 36,200  Level Aus ATC (RADAR)
08:19AM -25.6135 148.5108 346° North 456 525 36,300 60 Climbing Aus ATC (RADAR)
08:20AM -25.5106 148.4813 345° North 459 528 36,300  Level Aus ATC (RADAR)
08:21AM -25.4381 148.4601 345° North 462 532 36,300 -120 Level Aus ATC (RADAR)
08:22AM -25.3160 148.4250 346° North 461 531 36,100  Descending FlightAware
08:22AM -25.2918 148.4177 345° North 464 534 36,300 180 Climbing Aus ATC (RADAR)
08:22AM -25.2412 148.4034 346° North 456 525 36,200 -360 Descending Aus ATC (RADAR)
08:22AM -25.2410 148.4030 345° North 460 529 36,100  Descending FlightAware
08:23AM -25.1690 148.3827 345° North 457 526 36,200 -180 Climbing Aus ATC (RADAR)
08:23AM -25.1480 148.3770 345° North 457 526 36,000  Descending FlightAware
08:24AM -25.0671 148.3534 345° North 452 520 36,200  Climbing Aus ATC (RADAR)
08:24AM -25.0600 148.3510 345° North 454 522 36,000  Descending FlightAware
08:24AM -24.9956 148.3325 345° North 454 522 36,200  Climbing Aus ATC (RADAR)
08:24AM -24.9760 148.3270 345° North 453 521 36,000  Descending FlightAware
08:25AM -24.8939 148.3039 345° North 452 520 36,200  Climbing Aus ATC (RADAR)
08:25AM -24.8930 148.3040 346° North 453 521 36,000  Descending FlightAware
08:25AM -24.8637 148.2954 346° North 449 517 36,200 300 Climbing Aus ATC (RADAR)
08:26AM -24.8023 148.2774 346° North 451 519 36,200 -360 Level Aus ATC (RADAR)
08:26AM -24.8140 148.2810 346° North 454 522 36,000 -300 Descending FlightAware
08:26AM -24.7280 148.2560 345° North 454 522 36,000 180 Level FlightAware
08:27AM -24.6704 148.2400 345° North 454 522 36,200 120 Climbing Aus ATC (RADAR)
08:27AM -24.6530 148.2350 345° North 456 525 36,100 -120 Descending FlightAware
08:28AM -24.5640 148.2100 346° North 456 525 36,100 180 Level FlightAware
08:28AM -24.4961 148.1911 346° North 457 526 36,300 120 Climbing Aus ATC (RADAR)
08:28AM -24.4656 148.1814 344° North 456 525 36,200 -480 Descending Aus ATC (RADAR)
08:29AM -24.4700 148.1830 344° North 457 526 36,100  Descending FlightAware
08:29AM -24.3938 148.1614 344° North 458 527 36,200  Climbing Aus ATC (RADAR)
08:29AM -24.3820 148.1580 344° North 457 526 36,100 120 Descending FlightAware
08:30AM -24.2913 148.1326 344° North 457 526 36,300  Climbing Aus ATC (RADAR)
08:30AM -24.2990 148.1350 346° North 457 526 36,100 -420 Descending FlightAware
08:30AM -24.2607 148.1242 346° North 454 522 36,200  Climbing Aus ATC (RADAR)
08:31AM -24.2180 148.1120 346° North 455 524 36,100  Descending FlightAware
08:31AM -24.1994 148.1070 346° North 455 524 36,200 -240 Climbing Aus ATC (RADAR)
08:31AM -24.1580 148.0950 346° North 454 522 36,000  Descending FlightAware
08:32AM -24.0668 148.0694 346° North 454 522 36,200  Climbing Aus ATC (RADAR)
08:32AM -24.0600 148.0670 346° North 453 521 36,000  Descending FlightAware
08:32AM -23.9755 148.0435 346° North 451 519 36,200  Climbing Aus ATC (RADAR)
08:32AM -23.9790 148.0440 346° North 452 520 36,000  Descending FlightAware
08:33AM -23.8738 148.0150 346° North 452 520 36,200  Climbing Aus ATC (RADAR)
08:33AM -23.8800 148.0160 346° North 452 520 36,000  Descending FlightAware
08:34AM -23.7828 147.9895 346° North 452 520 36,200  Climbing Aus ATC (RADAR)
08:34AM -23.7970 147.9930 346° North 450 518 36,000  Descending FlightAware
08:35AM -23.6720 147.9581 346° North 449 517 36,200  Climbing Aus ATC (RADAR)
08:35AM -23.6690 147.9570 346° North 450 518 36,000  Descending FlightAware
08:36AM -23.5809 147.9331 346° North 451 519 36,200  Climbing Aus ATC (RADAR)
08:36AM -23.6010 147.9380 346° North 450 518 36,000 -300 Descending FlightAware
08:36AM -23.5210 147.9160 346° North 452 520 36,000 180 Level FlightAware
08:37AM -23.4490 147.8961 346° North 453 521 36,200  Climbing Aus ATC (RADAR)
08:37AM -23.4180 147.8870 346° North 452 520 36,000 -180 Descending FlightAware
08:37AM -23.3577 147.8706 346° North 452 520 36,100 120 Climbing Aus ATC (RADAR)
08:38AM -23.3330 147.8630 346° North 454 522 36,100  Level FlightAware
08:38AM -23.2556 147.8421 346° North 455 524 36,100  Level Aus ATC (RADAR)
08:39AM -23.2247 147.8339 346° North 456 525 36,100  Level Aus ATC (RADAR)
08:39AM -23.2190 147.8310 346° North 456 525 36,100 180 Level FlightAware
08:39AM -23.1632 147.8163 346° North 457 526 36,200  Climbing Aus ATC (RADAR)
08:39AM -23.1370 147.8090 346° North 456 525 36,100  Descending FlightAware
08:40AM -23.0502 147.7853 346° North 459 528 36,200  Climbing Aus ATC (RADAR)
08:40AM -23.0540 147.7860 346° North 457 526 36,100  Descending FlightAware
08:41AM -22.9579 147.7596 346° North 457 526 36,200  Climbing Aus ATC (RADAR)
08:41AM -22.9710 147.7630 346° North 458 527 36,100 -240 Descending FlightAware
08:42AM -22.8760 147.7360 345° North 457 526 36,000  Descending FlightAware
08:42AM -22.8038 147.7165 345° North 458 527 36,100 60 Climbing Aus ATC (RADAR)
08:42AM -22.7416 147.6994 346° North 456 525 36,100 -240 Level Aus ATC (RADAR)
08:43AM -22.7570 147.7030 346° North 457 526 36,000 -180 Descending FlightAware
08:43AM -22.6740 147.6800 346° North 456 525 36,000 60 Level FlightAware
08:44AM -22.6082 147.6628 346° North 457 526 36,100  Climbing Aus ATC (RADAR)
08:44AM -22.5940 147.6580 346° North 456 525 36,000  Descending FlightAware
08:44AM -22.5368 147.6433 346° North 454 522 36,100  Climbing Aus ATC (RADAR)
08:45AM -22.5110 147.6360 346° North 455 524 36,000  Descending FlightAware
08:45AM -22.4244 147.6126 346° North 454 522 36,100  Climbing Aus ATC (RADAR)
08:45AM -22.4280 147.6130 346° North 456 525 36,000  Descending FlightAware
08:46AM -22.3323 147.5872 346° North 456 525 36,100  Climbing Aus ATC (RADAR)
08:46AM -22.3330 147.5870 346° North 456 525 36,000 -120 Descending FlightAware
08:47AM -22.2500 147.5640 346° North 457 526 36,000 60 Level FlightAware
08:47AM -22.1777 147.5449 346° North 459 528 36,100  Climbing Aus ATC (RADAR)
08:47AM -22.1630 147.5400 346° North 458 527 36,000  Descending FlightAware
08:48AM -22.1061 147.5254 346° North 453 521 36,100 240 Climbing Aus ATC (RADAR)
08:48AM -22.1140 147.5260 346° North 458 527 36,100  Level FlightAware
08:49AM -22.0160 147.5000 346° North 459 528 36,100 120 Level FlightAware
08:49AM -21.9925 147.4942 346° North 455 524 36,200  Climbing Aus ATC (RADAR)
08:49AM -21.9320 147.4770 346° North 458 527 36,100  Descending FlightAware
08:49AM -21.8994 147.4687 346° North 462 532 36,200 60 Climbing Aus ATC (RADAR)
08:50AM -21.7965 147.4408 346° North 456 525 36,200 -120 Level Aus ATC (RADAR)
08:50AM -21.8190 147.4460 346° North 459 528 36,100 -180 Descending FlightAware
08:51AM -21.7290 147.4210 346° North 456 525 36,100 120 Level FlightAware
08:51AM -21.7041 147.4156 346° North 454 522 36,200 -180 Climbing Aus ATC (RADAR)
08:52AM -21.6600 147.4020 346° North 452 520 36,000 -120 Descending FlightAware
08:52AM -21.5721 147.3793 346° North 448 516 36,100 120 Climbing Aus ATC (RADAR)
08:52AM -21.5418 147.3711 346° North 447 514 36,100 -180 Level Aus ATC (RADAR)
08:53AM -21.5260 147.3650 346° North 450 518 36,000 -120 Descending FlightAware
08:53AM -21.4580 147.3460 345° North 450 518 36,000 60 Level FlightAware
08:54AM -21.3801 147.3274 345° North 448 516 36,100  Climbing Aus ATC (RADAR)
08:54AM -21.3890 147.3260 345° North 450 518 36,000  Descending FlightAware
08:54AM -21.3092 147.3082 345° North 447 514 36,100  Climbing Aus ATC (RADAR)
08:55AM -21.3210 147.3060 345° North 450 518 36,000  Descending FlightAware
08:55AM -21.2075 147.2808 345° North 452 520 36,100 120 Climbing Aus ATC (RADAR)
08:55AM -21.1767 147.2729 347° North 455 524 36,100 -300 Level Aus ATC (RADAR)
08:55AM -21.2360 147.2820 347° North 450 518 36,000 180 Descending FlightAware
08:56AM -21.1156 147.2561 347° North 453 521 36,200 120 Climbing Aus ATC (RADAR)
08:56AM -21.0820 147.2460 347° North 456 525 36,100  Descending FlightAware
08:56AM -21.0230 147.2312 347° North 455 524 36,200  Climbing Aus ATC (RADAR)
08:57AM -20.9870 147.2210 347° North 459 528 36,100  Descending FlightAware
08:57AM -20.9404 147.2086 347° North 460 529 36,200  Climbing Aus ATC (RADAR)
08:57AM -20.9050 147.1980 347° North 460 529 36,100  Descending FlightAware
08:58AM -20.8680 147.1894 347° North 461 531 36,200  Climbing Aus ATC (RADAR)
08:58AM -20.8120 147.1740 347° North 460 529 36,100 -120 Descending FlightAware
08:59AM -20.7645 147.1618 347° North 458 527 36,100 -180 Level Aus ATC (RADAR)
08:59AM -20.7300 147.1510 347° North 460 529 36,000  Descending FlightAware
08:59AM -20.6712 147.1369 347° North 460 529 36,100  Climbing Aus ATC (RADAR)
09:00AM -20.6470 147.1290 347° North 460 529 36,000 -120 Descending FlightAware
09:00AM -20.5520 147.1040 346° North 458 527 36,000  Level FlightAware
09:01AM -20.4690 147.0820 346° North 457 526 36,000  Level FlightAware
09:02AM -20.3780 147.0570 346° North 457 526 36,000  Level FlightAware
09:02AM -20.2960 147.0350 346° North 458 527 36,000  Level FlightAware
09:03AM -20.2140 147.0130 346° North 460 529 36,000 60 Level FlightAware
09:03AM -20.1557 146.9990 346° North 460 529 36,100  Climbing Aus ATC (RADAR)
09:04AM -20.1300 146.9910 346° North 460 529 36,000  Descending FlightAware
09:04AM -20.0350 146.9660 346° North 461 531 36,100 180 Climbing FlightAware
09:05AM -19.9895 146.9553 346° North 462 532 36,200  Climbing Aus ATC (RADAR)
09:05AM -19.9510 146.9440 346° North 464 534 36,100  Descending FlightAware
09:06AM -19.8960 146.9298 346° North 463 533 36,200  Climbing Aus ATC (RADAR)
09:06AM -19.8600 146.9190 346° North 465 535 36,100  Descending FlightAware
09:07AM -19.7727 146.8898 346° North 467 537 36,200  Climbing Aus ATC (RADAR)
09:07AM -19.7780 146.8910 346° North 457 526 36,100 -180 Descending FlightAware
09:07AM -19.7050 146.8510 333° Northwest 457 526 36,100  Level FlightAware
09:08AM -19.6217 146.8090 333° Northwest 458 527 36,100  Level Aus ATC (RADAR)
09:08AM -19.6160 146.8050 333° Northwest 456 525 36,100  Level FlightAware
09:09AM -19.5367 146.7641 333° Northwest 459 528 36,100 -180 Level Aus ATC (RADAR)
09:09AM -19.5410 146.7660 333° Northwest 453 521 36,000 -180 Descending FlightAware
09:09AM -19.4550 146.7200 333° Northwest 454 522 36,000 60 Level FlightAware
09:10AM -19.4230 146.7054 333° Northwest 459 528 36,100  Climbing Aus ATC (RADAR)
09:10AM -19.3810 146.6820 333° Northwest 452 520 36,000 -120 Descending FlightAware
09:11AM -19.3080 146.6430 333° Northwest 452 520 36,000 60 Level FlightAware
09:11AM -19.2719 146.6266 333° Northwest 455 524 36,100  Climbing Aus ATC (RADAR)
09:11AM -19.2210 146.5980 333° Northwest 453 521 36,000  Descending FlightAware
09:12AM -19.1869 146.5825 333° Northwest 454 522 36,100  Climbing Aus ATC (RADAR)
09:12AM -19.1440 146.5580 333° Northwest 453 521 36,000  Descending FlightAware
09:13AM -19.0650 146.5177 333° Northwest 451 519 36,100 120 Climbing Aus ATC (RADAR)
09:13AM -19.0610 146.5140 333° Northwest 454 522 36,100  Level FlightAware
09:14AM -18.9740 146.4690 334° Northwest 454 522 36,100 60 Level FlightAware
09:14AM -18.9139 146.4376 334° Northwest 443 510 36,200  Climbing Aus ATC (RADAR)
09:14AM -18.8970 146.4290 334° Northwest 456 525 36,100  Descending FlightAware
09:15AM -18.8387 146.3974 334° Northwest 446 513 36,200  Climbing Aus ATC (RADAR)
09:15AM -18.7710 146.3630 334° Northwest 450 518 36,100 -120 Descending FlightAware
09:16AM -18.7148 146.3343 334° Northwest 445 512 36,100  Level Aus ATC (RADAR)
09:17AM -18.6380 146.2950 334° Northwest 451 519 36,100  Level FlightAware
09:18AM -18.5052 146.2240 334° Northwest 451 519 36,100 -120 Level Aus ATC (RADAR)
09:18AM -18.4950 146.2210 335° Northwest 452 520 36,000  Descending FlightAware
09:18AM -18.4762 146.2095 335° Northwest 451 519 36,100 60 Climbing Aus ATC (RADAR)
09:19AM -18.3523 146.1443 335° Northwest 454 522 36,100 -120 Level Aus ATC (RADAR)
09:19AM -18.3400 146.1400 335° Northwest 453 521 36,000 -120 Descending FlightAware
09:20AM -18.2640 146.1000 333° Northwest 454 522 36,000 60 Level FlightAware
09:20AM -18.1891 146.0605 333° Northwest 453 521 36,100 120 Climbing Aus ATC (RADAR)
09:21AM -18.1790 146.0570 333° Northwest 454 522 36,100  Level FlightAware
09:21AM -18.1010 146.0170 334° Northwest 453 521 36,100 -120 Level FlightAware
09:22AM -18.0230 145.9770 334° Northwest 453 521 36,000  Descending FlightAware
09:23AM -17.9397 145.9326 334° Northwest 452 520 36,100  Climbing Aus ATC (RADAR)
09:23AM -17.9360 145.9320 334° Northwest 453 521 36,000 -180 Descending FlightAware
09:23AM -17.8600 145.8930 334° Northwest 452 520 36,000  Level FlightAware
09:24AM -17.7850 145.8550 334° Northwest 451 519 36,000  Level FlightAware
09:25AM -17.7006 145.8105 334° Northwest 451 519 36,000  Level Aus ATC (RADAR)
09:25AM -17.6960 145.8100 334° Northwest 451 519 36,000  Level FlightAware
09:25AM -17.6230 145.7710 333° Northwest 452 520 36,000  Level FlightAware
09:26AM -17.5330 145.7250 334° Northwest 452 520 36,000  Level FlightAware
09:27AM -17.4580 145.6870 334° Northwest 453 521 36,000 60 Level FlightAware
09:27AM -17.4036 145.6592 334° Northwest 453 521 36,100  Climbing Aus ATC (RADAR)
09:28AM -17.3720 145.6440 334° Northwest 461 531 36,000  Descending FlightAware
09:28AM -17.2887 145.6008 334° Northwest 445 512 36,100 120 Climbing Aus ATC (RADAR)
09:28AM -17.2890 145.6010 334° Northwest 461 531 36,100  Level FlightAware
09:29AM -17.2110 145.5620 334° Northwest 462 532 36,100 60 Level FlightAware
09:30AM -17.1248 145.5179 334° Northwest 451 519 36,200  Climbing Aus ATC (RADAR)
09:30AM -17.1120 145.5120 334° Northwest 462 532 36,100 -120 Descending FlightAware
09:31AM -17.0250 145.4670 334° Northwest 463 533 36,100  Level FlightAware
09:31AM -16.9470 145.4300 336° Northwest 465 535 36,100  Level FlightAware
09:32AM -16.8765 145.4132 336° Northwest 456 525 36,100  Level Aus ATC (RADAR)
09:32AM -16.8500 145.4100 336° Northwest 463 533 36,100 -120 Level FlightAware
09:33AM -16.7640 145.4080 359° North 469 540 36,000 -120 Descending FlightAware
09:33AM -16.6610 145.4050 358° North 466 536 36,000 60 Level FlightAware
09:34AM -16.6044 145.4028 358° North 460 529 36,100  Climbing Aus ATC (RADAR)
09:34AM -16.5760 145.4020 358° North 463 533 36,000 -120 Descending FlightAware
09:35AM -16.4930 145.4000 359° North 461 531 36,000  Level FlightAware
09:36AM -16.3940 145.3970 358° North 461 531 36,000  Level FlightAware
09:36AM -16.3372 145.3944 358° North 455 524 36,000  Level Aus ATC (RADAR)
09:36AM -16.3110 145.3940 358° North 464 534 36,000 60 Level FlightAware
09:37AM -16.2079 145.3908 358° North 459 528 36,100 60 Climbing Aus ATC (RADAR)
09:37AM -16.1930 145.3910 358° North 466 536 36,100  Level FlightAware
09:38AM -16.1040 145.3890 359° North 472 543 36,100  Level FlightAware
09:39AM -15.9790 145.3850 358° North 474 545 36,100  Level FlightAware
09:39AM -15.9050 145.3820 358° North 474 545 36,100  Level FlightAware
09:40AM -15.8023 145.3794 358° North 466 536 36,100  Level Aus ATC (RADAR)
09:40AM -15.7680 145.3790 358° North 474 545 36,100  Level FlightAware
09:41AM -15.6930 145.3760 358° North 474 545 36,100 -180 Level FlightAware
09:41AM -15.6609 145.3754 358° North 463 533 36,000  Descending Aus ATC (RADAR)
09:42AM -15.6190 145.3730 358° North 474 545 36,100  Climbing FlightAware
09:42AM -15.4988 145.3704 358° North 460 529 36,000  Descending Aus ATC (RADAR)
09:43AM -15.5260 145.3700 358° North 474 545 36,100 60 Climbing FlightAware
09:43AM -15.4510 145.3670 358° North 474 545 36,100  Level FlightAware
09:44AM -15.3770 145.3640 358° North 474 545 36,100  Level FlightAware
09:44AM -15.2270 145.3638 358° North 467 537 36,100  Level Aus ATC (RADAR)
09:45AM -15.3020 145.3620 358° North 474 545 36,100  Level FlightAware
09:45AM -15.2280 145.3590 358° North 474 545 36,100  Level FlightAware
09:46AM -15.1530 145.3560 358° North 474 545 36,100  Level FlightAware
09:46AM -14.9528 145.3566 358° North 470 541 36,100  Level Aus ATC (RADAR)
09:47AM -15.0600 145.3530 358° North 474 545 36,100  Level FlightAware
09:47AM -14.9850 145.3500 358° North 474 545 36,100  Level FlightAware
09:48AM -14.9110 145.3480 359° North 474 545 36,100  Level FlightAware
09:49AM -14.6798 145.3476 359° North 464 534 36,100  Level Aus ATC (RADAR)
09:49AM -14.8360 145.3450 359° North 474 545 36,100  Level FlightAware
09:49AM -14.7620 145.3420 358° North 474 545 36,100 -60 Level FlightAware
09:51AM -14.4102 145.3421 358° North 458 527 36,000 -60 Descending Aus ATC (RADAR)
09:52AM -14.2832 145.3252 353° North 454 522 36,000  Level Aus ATC (RADAR)
09:53AM -14.1460 145.3031 351° North 456 525 36,100  Climbing Aus ATC (RADAR)
09:54AM -14.0183 145.2829 351° North 461 531 36,100  Level Aus ATC (RADAR)
09:55AM -13.8787 145.2611 351° North 467 537 36,100  Level Aus ATC (RADAR)
09:56AM -13.7495 145.2427 352° North 464 534 36,100  Level Aus ATC (RADAR)
09:57AM -13.6091 145.2173 350° North 467 537 36,100  Level Aus ATC (RADAR)
09:58AM -13.4812 145.1983 352° North 459 528 36,100 -60 Level Aus ATC (RADAR)
09:59AM -13.3436 145.1790 352° North 454 522 36,000 -60 Descending Aus ATC (RADAR)
10:00AM -13.2176 145.1634 353° North 450 518 36,000  Level Aus ATC (RADAR)
10:01AM -13.0923 145.1393 349° North 452 520 36,100  Climbing Aus ATC (RADAR)
10:02AM -12.9548 145.1151 350° North 457 526 36,100  Level Aus ATC (RADAR)
10:03AM -12.8262 145.0947 351° North 499 574 36,100  Level Aus ATC (RADAR)
10:04AM -12.6879 145.0697 350° North 463 533 36,100  Level Aus ATC (RADAR)
10:07AM -12.3440 145.0153 355° North 38,000  Climbing Aus ATC (Calculated)
10:09AM -12.1698 144.9878 351° North  Level FlightAware Approximate
10:09AM -12.0860 144.9746 355° North 38,000  Level Aus ATC (Calculated)
10:09AM -12.0000 144.9610 355° North 38,000  Level Aus ATC (Calculated)
10:11AM -12.0416 145.0860 109° East  Level FlightAware Approximate
10:12AM -12.0020 144.9669 289° West  Level FlightAware Approximate
10:13AM -11.9623 144.8479 289° West  Level FlightAware Approximate
10:13AM -11.6472 144.9052 356° North 38,000  Level Aus ATC (Calculated)
10:13AM -11.5813 144.8948 356° North 38,000  Level Aus ATC (Calculated)
10:14AM -11.7688 144.9244 171° South  Level FlightAware Approximate
10:15AM -11.3850 144.8275 351° North  Level Estimated
10:15AM -11.3216 144.8539 356° North 38,000  Level Aus ATC (Calculated)
10:15AM -11.3216 144.8539 356° North 38,000  Level Aus ATC (Calculated)
10:16AM -11.2633 144.8095 352° North  Level FlightAware Approximate
10:17AM -11.1130 144.8211 351° North  Level FlightAware Approximate
10:18AM -10.9914 144.8020 351° North  Level FlightAware Approximate
10:19AM -10.8699 144.7829 351° North  Level FlightAware Approximate
10:20AM -10.7483 144.7639 351° North  Level FlightAware Approximate
10:21AM -10.6267 144.7448 351° North  Level FlightAware Approximate
10:22AM -10.5052 144.7258 351° North  Level FlightAware Approximate
10:23AM -10.3836 144.7068 351° North  Level FlightAware Approximate
10:24AM -10.2621 144.6877 351° North  Level FlightAware Approximate
10:25AM -10.1405 144.6688 351° North  Level FlightAware Approximate
10:26AM -10.0190 144.6498 351° North  Level FlightAware Approximate
10:27AM -9.8974 144.6308 351° North  Level FlightAware Approximate
10:28AM -9.7759 144.6119 351° North  Level FlightAware Approximate
10:29AM -9.6543 144.5929 351° North  Level FlightAware Approximate
10:30AM -9.5327 144.5740 351° North  Level FlightAware Approximate
10:31AM -9.4112 144.5551 351° North  Level FlightAware Approximate
10:32AM -9.2896 144.5362 351° North  Level FlightAware Approximate
10:33AM -9.1681 144.5173 351° North  Level FlightAware Approximate
10:34AM -9.0465 144.4985 351° North  Level FlightAware Approximate
10:35AM -8.9249 144.4796 351° North  Level FlightAware Approximate
10:36AM -8.8034 144.4608 351° North  Level FlightAware Approximate
10:37AM -8.6818 144.4420 351° North  Level FlightAware Approximate
10:38AM -8.5602 144.4231 351° North  Level FlightAware Approximate
10:39AM -8.4387 144.4043 351° North  Level FlightAware Approximate
10:40AM -8.3171 144.3855 351° North  Level FlightAware Approximate
10:41AM -8.1955 144.3667 351° North  Level FlightAware Approximate
10:42AM -8.0739 144.3480 351° North  Level FlightAware Approximate
10:43AM -7.9524 144.3292 351° North  Level FlightAware Approximate
10:44AM -7.8308 144.3105 351° North  Level FlightAware Approximate
10:45AM -7.7092 144.2917 351° North  Level FlightAware Approximate
10:46AM -7.5876 144.2730 351° North  Level FlightAware Approximate
10:47AM -7.4661 144.2543 351° North  Level FlightAware Approximate
10:48AM -7.3445 144.2356 351° North  Level FlightAware Approximate
10:49AM -7.3876 144.2468 358° North  Level FlightAware Approximate
10:50AM -7.2647 144.2426 358° North  Level FlightAware Approximate
10:51AM -7.1418 144.2385 358° North  Level FlightAware Approximate
10:52AM -7.0189 144.2343 358° North  Level FlightAware Approximate
10:53AM -6.8960 144.2302 358° North  Level FlightAware Approximate
10:54AM -6.7731 144.2260 358° North  Level FlightAware Approximate
10:55AM -6.6502 144.2219 358° North  Level FlightAware Approximate
10:56AM -6.5273 144.2178 358° North  Level FlightAware Approximate
10:57AM -6.4043 144.2136 358° North  Level FlightAware Approximate
10:58AM -6.2814 144.2095 358° North  Level FlightAware Approximate
10:59AM -6.1585 144.2054 358° North  Level FlightAware Approximate
11:00AM -6.0356 144.2012 358° North  Level FlightAware Approximate
11:01AM -5.9127 144.1971 358° North  Level FlightAware Approximate
11:02AM -5.7898 144.1930 358° North  Level FlightAware Approximate
11:03AM -5.6669 144.1888 358° North  Level FlightAware Approximate
11:04AM -5.5439 144.1847 358° North  Level FlightAware Approximate
11:05AM -5.4210 144.1806 358° North  Level FlightAware Approximate
11:06AM -5.2981 144.1765 358° North  Level FlightAware Approximate
11:07AM -5.1752 144.1724 358° North  Level FlightAware Approximate
11:08AM -5.0523 144.1682 358° North  Level FlightAware Approximate
11:09AM -4.9293 144.1641 358° North  Level FlightAware Approximate
11:10AM -4.8064 144.1600 358° North  Level FlightAware Approximate
11:11AM -4.6835 144.1559 358° North  Level FlightAware Approximate
11:12AM -4.5606 144.1518 358° North  Level FlightAware Approximate
11:13AM -4.4377 144.1477 358° North  Level FlightAware Approximate
11:14AM -4.3147 144.1436 358° North  Level FlightAware Approximate
11:15AM -4.1918 144.1395 358° North  Level FlightAware Approximate
11:16AM -4.0689 144.1354 358° North  Level FlightAware Approximate
11:17AM -3.9460 144.1313 358° North  Level FlightAware Approximate
11:18AM -3.8231 144.1272 358° North  Level FlightAware Approximate
11:19AM -3.7001 144.1231 358° North  Level FlightAware Approximate
11:20AM -3.5772 144.1190 358° North  Level FlightAware Approximate
11:21AM -3.4543 144.1149 358° North  Level FlightAware Approximate
11:22AM -3.3314 144.1108 358° North  Level FlightAware Approximate
11:23AM -3.2085 144.1067 358° North  Level FlightAware Approximate
11:24AM -3.0855 144.1026 358° North  Level FlightAware Approximate
11:25AM -2.9626 144.0985 358° North  Level FlightAware Approximate
11:26AM -2.8397 144.0944 358° North  Level FlightAware Approximate
11:27AM -2.7168 144.0903 358° North  Level FlightAware Approximate
11:28AM -2.5939 144.0862 358° North  Level FlightAware Approximate
11:29AM -2.4709 144.0821 358° North  Level FlightAware Approximate
11:30AM -2.3480 144.0780 358° North  Level FlightAware Approximate
11:31AM -2.2251 144.0740 358° North  Level FlightAware Approximate
11:32AM -2.1022 144.0699 358° North  Level FlightAware Approximate
11:33AM -1.9793 144.0658 358° North  Level FlightAware Approximate
11:34AM -1.8563 144.0617 358° North  Level FlightAware Approximate
11:35AM -1.7334 144.0576 358° North  Level FlightAware Approximate
11:36AM -1.6105 144.0535 358° North  Level FlightAware Approximate
11:37AM -1.4876 144.0494 358° North  Level FlightAware Approximate
11:38AM -1.3647 144.0453 358° North  Level FlightAware Approximate
11:39AM -1.2417 144.0412 358° North  Level FlightAware Approximate
11:40AM -1.1188 144.0372 358° North  Level FlightAware Approximate
11:41AM -0.9959 144.0331 358° North  Level FlightAware Approximate
11:42AM -0.8730 144.0290 358° North  Level FlightAware Approximate
11:43AM -0.7501 144.0249 358° North  Level FlightAware Approximate
11:43AM 0.0000 144.0000 356° North 477 549 38,000  Level Oakland Oceanic (ODAPS)
11:44AM -0.6271 144.0208 358° North  Level FlightAware Approximate
11:45AM -0.5042 144.0168 358° North  Level FlightAware Approximate
11:46AM -0.3813 144.0127 358° North  Level FlightAware Approximate
11:46AM 0.4667 143.9667 356° North 476 548 38,000  Level Oakland Oceanic (ODAPS)
11:47AM -0.2584 144.0086 358° North  Level FlightAware Approximate
11:48AM -0.1355 144.0045 358° North  Level FlightAware Approximate
11:49AM 0.7895 143.9396 356° North 477 549 38,000  Level FlightAware Transoceanic
11:49AM 0.7333 143.9500 356° North 476 548 38,000  Level Oakland Oceanic (ODAPS)
11:50AM 0.9211 143.9296 356° North 477 549 38,000  Level FlightAware Transoceanic
11:50AM 0.9000 143.9333 356° North 490 564 38,000  Level Oakland Oceanic (ODAPS)
11:50AM 0.9000 143.9333 356° North 492 566 38,000  Level Oakland Oceanic (ODAPS)
11:50AM 0.9333 143.9333 356° North 491 565 38,000  Level Oakland Oceanic (ODAPS)
11:51AM 1.0526 143.9195 356° North 477 549 38,000  Level FlightAware Transoceanic
11:52AM 1.1842 143.9094 356° North 477 549 38,000  Level FlightAware Transoceanic
11:52AM 1.1333 143.9167 356° North 492 566 38,000  Level Oakland Oceanic (ODAPS)
11:52AM 1.1833 143.9167 356° North 492 566 38,000  Level Oakland Oceanic (ODAPS)
11:53AM 1.2667 143.9051 356° North 476 548 38,000  Level FlightAware Transoceanic
11:54AM 1.4000 143.8948 356° North 476 548 38,000  Level FlightAware Transoceanic
11:55AM 1.6667 143.8773 356° North 476 548 38,000  Level FlightAware Transoceanic
11:56AM 1.7200 143.8702 356° North 492 566 38,000  Level FlightAware Transoceanic
11:57AM 1.8822 143.8596 356° North 491 565 38,000  Level FlightAware Transoceanic
11:58AM 2.0012 143.8525 356° North 492 566 38,000  Level FlightAware Transoceanic
11:59AM 2.1375 143.8418 356° North 492 566 38,000  Level FlightAware Transoceanic
12:00PM 2.2738 143.8311 356° North 492 566 38,000  Level FlightAware Transoceanic
12:00PM 2.1667 143.8333 356° North 507 583 38,000  Level Oakland Oceanic (ODAPS)
12:01PM 2.4101 143.8205 356° North 492 566 38,000  Level FlightAware Transoceanic
12:02PM 2.5464 143.8098 356° North 492 566 38,000  Level FlightAware Transoceanic
12:03PM 2.6827 143.7991 356° North 492 566 38,000  Level FlightAware Transoceanic
12:04PM 2.8191 143.7883 356° North 492 566 38,000  Level FlightAware Transoceanic
12:05PM 2.9554 143.7776 356° North 492 566 38,000  Level FlightAware Transoceanic
12:06PM 3.0167 143.7685 356° North 507 583 38,000  Level FlightAware Transoceanic
12:07PM 3.1583 143.7576 356° North 507 583 38,000  Level FlightAware Transoceanic
12:08PM 3.3000 143.7468 356° North 507 583 38,000  Level FlightAware Transoceanic
12:09PM 3.4417 143.7360 356° North 507 583 38,000  Level FlightAware Transoceanic
12:10PM 3.5833 143.7252 356° North 507 583 38,000  Level FlightAware Transoceanic
12:11PM 3.7250 143.7143 356° North 507 583 38,000  Level FlightAware Transoceanic
12:12PM 3.8667 143.7035 356° North 507 583 38,000  Level FlightAware Transoceanic
12:13PM 4.0083 143.6927 356° North 507 583 38,000  Level FlightAware Transoceanic
12:13PM 3.3000 143.7500 356° North 469 540 38,000  Level Oakland Oceanic (ODAPS)
12:14PM 4.1500 143.6818 356° North 507 583 38,000  Level FlightAware Transoceanic
12:15PM 4.2917 143.6710 356° North 507 583 38,000  Level FlightAware Transoceanic
12:15PM 4.0667 143.6833 356° North 497 572 38,000  Level Oakland Oceanic (ODAPS)
12:16PM 4.4333 143.6601 356° North 507 583 38,000  Level FlightAware Transoceanic
12:17PM 4.5750 143.6493 356° North 507 583 38,000  Level FlightAware Transoceanic
12:18PM 4.7167 143.6384 356° North 507 583 38,000  Level FlightAware Transoceanic
12:19PM 4.7385 143.6372 356° North 469 540 38,000  Level FlightAware Transoceanic
12:20PM 4.8692 143.6269 356° North 469 540 38,000  Level FlightAware Transoceanic
12:21PM 5.0000 143.6167 351° North 469 540 38,000  Level FlightAware Transoceanic
12:21PM 5.0000 143.6167 351° North 496 571 38,000  Level Oakland Oceanic (ODAPS)
12:22PM 5.1357 143.5951 351° North 497 572 38,000  Level FlightAware Transoceanic
12:23PM 5.2713 143.5736 351° North 497 572 38,000  Level FlightAware Transoceanic
12:24PM 5.4070 143.5520 351° North 497 572 38,000  Level FlightAware Transoceanic
12:25PM 5.5427 143.5304 351° North 497 572 38,000  Level FlightAware Transoceanic
12:26PM 5.6783 143.5088 351° North 497 572 38,000  Level FlightAware Transoceanic
12:27PM 5.8140 143.4872 351° North 496 571 38,000  Level FlightAware Transoceanic
12:28PM 5.9496 143.4656 351° North 496 571 38,000  Level FlightAware Transoceanic
12:28PM 5.9667 143.4667 351° North 497 572 38,000  Level Oakland Oceanic (ODAPS)
12:29PM 6.0853 143.4440 351° North 496 571 38,000  Level FlightAware Transoceanic
12:30PM 6.2210 143.4224 351° North 496 571 38,000  Level FlightAware Transoceanic
12:31PM 6.3566 143.4007 351° North 496 571 38,000  Level FlightAware Transoceanic
12:32PM 6.4923 143.3791 351° North 496 571 38,000  Level FlightAware Transoceanic
12:33PM 6.6279 143.3574 351° North 496 571 38,000  Level FlightAware Transoceanic
12:34PM 6.7771 143.3366 351° North 497 572 38,000  Level FlightAware Transoceanic
12:35PM 6.9121 143.3148 351° North 497 572 38,000  Level FlightAware Transoceanic
12:36PM 7.0472 143.2931 351° North 497 572 38,000  Level FlightAware Transoceanic
12:37PM 7.1823 143.2714 351° North 497 572 38,000  Level FlightAware Transoceanic
12:38PM 7.3173 143.2496 351° North 497 572 38,000  Level FlightAware Transoceanic
12:39PM 7.4524 143.2278 351° North 497 572 38,000  Level FlightAware Transoceanic
12:40PM 7.5875 143.2060 351° North 497 572 38,000  Level FlightAware Transoceanic
12:41PM 7.7225 143.1842 351° North 497 572 38,000  Level FlightAware Transoceanic
12:42PM 7.8576 143.1624 351° North 497 572 38,000 1,440 Level FlightAware Transoceanic
12:42PM 7.8833 143.1500 351° North 491 565 40,000  Climbing Oakland Oceanic (ODAPS)
12:43PM 7.9927 143.1406 351° North 497 572 38,000 -1,260 Descending FlightAware Transoceanic
12:44PM 8.1277 143.1187 351° North 497 572 38,000  Level FlightAware Transoceanic
12:45PM 8.2628 143.0969 351° North 497 572 38,000  Level FlightAware Transoceanic
12:46PM 8.3978 143.0750 351° North 497 572 38,000  Level FlightAware Transoceanic
12:47PM 8.5329 143.0531 351° North 497 572 38,000 960 Level FlightAware Transoceanic
12:48PM 8.6834 143.0237 351° North 491 565 40,000 960 Climbing FlightAware Transoceanic
12:49PM 8.8167 143.0027 351° North 491 565 40,000  Level FlightAware Transoceanic
12:50PM 8.9500 142.9815 351° North 491 565 40,000  Level FlightAware Transoceanic
12:51PM 9.0834 142.9604 351° North 491 565 40,000  Level FlightAware Transoceanic
12:52PM 9.2167 142.9393 351° North 491 565 40,000  Level FlightAware Transoceanic
12:53PM 9.3500 142.9181 351° North 491 565 40,000  Level FlightAware Transoceanic
12:54PM 9.4834 142.8970 351° North 491 565 40,000  Level FlightAware Transoceanic
12:55PM 9.6167 142.8758 351° North 491 565 40,000  Level FlightAware Transoceanic
12:56PM 9.7500 142.8546 351° North 491 565 40,000  Level FlightAware Transoceanic
12:57PM 9.8833 142.8333 356° North 491 565 40,000  Level FlightAware Transoceanic
12:57PM 9.9667 142.8500 356° North 460 529 40,000  Level Guam Center
12:58PM 10.0225 142.8246 356° North 491 565 40,000  Level FlightAware Transoceanic
12:58PM 10.1000 142.8333 353° North 480 552 40,000  Level Guam Center
12:59PM 10.1618 142.8158 356° North 491 565 40,000  Level FlightAware Transoceanic
12:59PM 10.2500 142.8167 354° North 480 552 40,000  Level Guam Center
01:00PM 10.3010 142.8070 356° North 491 565 40,000  Level FlightAware Transoceanic
01:00PM 10.3833 142.8000 353° North 480 552 40,000  Level Guam Center
01:01PM 10.4402 142.7982 356° North 491 565 40,000  Level FlightAware Transoceanic
01:01PM 10.5167 142.7833 353° North 480 552 40,000  Level Guam Center
01:02PM 10.5794 142.7895 356° North 491 565 40,000  Level FlightAware Transoceanic
01:02PM 10.6500 142.7500 346° North 480 552 40,000  Level Guam Center
01:03PM 10.7186 142.7807 356° North 491 565 40,000  Level FlightAware Transoceanic
01:03PM 10.7667 142.7333 352° North 480 552 40,000  Level Guam Center
01:04PM 10.9000 142.7167 353° North 480 552 40,000  Level Guam Center
01:05PM 11.0500 142.7000 354° North 490 564 40,000  Level Guam Center
01:06PM 11.1833 142.6833 353° North 490 564 40,000  Level Guam Center
01:07PM 11.3167 142.6667 353° North 490 564 40,000  Level Guam Center
01:08PM 11.4500 142.6500 353° North 490 564 40,000  Level Guam Center
01:09PM 11.5833 142.6167 346° North 490 564 40,000  Level Guam Center
01:10PM 11.7167 142.6000 353° North 480 552 40,000  Level Guam Center
01:11PM 11.8500 142.5833 353° North 480 552 40,000  Level Guam Center
01:12PM 11.9833 142.5667 353° North 470 541 40,000  Level Guam Center
01:13PM 12.1167 142.5500 353° North 480 552 40,000  Level Guam Center
01:14PM 12.2500 142.5333 353° North 480 552 40,000  Level Guam Center
01:15PM 12.3833 142.5167 353° North 480 552 40,000  Level Guam Center
01:16PM 12.5167 142.5000 353° North 490 564 40,000  Level Guam Center
01:17PM 12.6500 142.4833 353° North 490 564 40,000  Level Guam Center
01:18PM 12.8000 142.4667 354° North 490 564 40,000  Level Guam Center
01:19PM 12.9333 142.4333 346° North 490 564 40,000  Level Guam Center
01:20PM 13.0667 142.4167 353° North 490 564 40,000  Level Guam Center
01:21PM 13.2000 142.4000 353° North 480 552 40,000  Level Guam Center
01:22PM 13.3333 142.3833 353° North 480 552 40,000  Level Guam Center
01:23PM 13.4667 142.3667 353° North 490 564 40,000  Level Guam Center
01:24PM 13.6000 142.3500 353° North 490 564 40,000  Level Guam Center
01:25PM 13.7333 142.3333 353° North 480 552 40,000  Level Guam Center
01:26PM 13.8667 142.3167 353° North 490 564 40,000  Level Guam Center
01:27PM 14.0000 142.2833 346° North 490 564 40,000  Level Guam Center
01:28PM 14.1333 142.2667 353° North 490 564 40,000  Level Guam Center
01:29PM 14.2667 142.2500 353° North 480 552 40,000  Level Guam Center
01:30PM 14.4000 142.2333 353° North 480 552 40,000  Level Guam Center
01:31PM 14.5333 142.2167 353° North 470 541 40,000  Level Guam Center
01:32PM 14.6667 142.2000 353° North 480 552 40,000  Level Guam Center
01:33PM 14.8000 142.1833 353° North 480 552 40,000  Level Guam Center
01:34PM 14.9333 142.1667 353° North 480 552 40,000  Level Guam Center
01:35PM 15.0667 142.1333 346° North 490 564 40,000  Level Guam Center
01:36PM 15.2000 142.1167 353° North 490 564 40,000  Level Guam Center
01:37PM 15.3333 142.1000 353° North 480 552 40,000  Level Guam Center
01:38PM 15.4833 142.0833 354° North 490 564 40,000  Level Guam Center
01:39PM 15.6167 142.0667 353° North 480 552 40,000  Level Guam Center
01:40PM 15.7500 142.0500 353° North 490 564 40,000  Level Guam Center
01:41PM 15.8833 142.0333 353° North 490 564 40,000  Level Guam Center
01:42PM 16.0167 142.0167 353° North 480 552 40,000  Level Guam Center
01:43PM 16.1500 142.0000 353° North 480 552 40,000  Level Guam Center
01:44PM 16.2833 141.9667 347° North 480 552 40,000  Level Guam Center
01:45PM 16.4167 141.9500 353° North 490 564 40,000  Level Guam Center
01:46PM 16.5500 141.9333 353° North 490 564 40,000  Level Guam Center
01:48PM 16.6667 141.8667 319° Northwest 460 529 40,000  Level Oakland Oceanic (ODAPS)
01:54PM 17.3463 141.2500 319° Northwest 460 529 40,000  Level FlightAware Transoceanic
01:55PM 17.4432 141.1615 319° Northwest 460 529 40,000  Level FlightAware Transoceanic
01:56PM 17.5401 141.0729 319° Northwest 460 529 40,000  Level FlightAware Transoceanic
01:57PM 17.6370 140.9843 319° Northwest 460 529 40,000  Level FlightAware Transoceanic
01:58PM 17.7338 140.8955 319° Northwest 460 529 40,000  Level FlightAware Transoceanic
01:58PM 17.6500 140.9667 319° Northwest 457 526 40,000  Level Oakland Oceanic (ODAPS)
01:59PM 17.8306 140.8067 319° Northwest 460 529 40,000  Level FlightAware Transoceanic
02:00PM 17.9273 140.7177 319° Northwest 460 529 40,000  Level FlightAware Transoceanic
02:01PM 18.0240 140.6287 319° Northwest 460 529 40,000  Level FlightAware Transoceanic
02:02PM 18.1207 140.5396 319° Northwest 460 529 40,000  Level FlightAware Transoceanic
02:03PM 18.2173 140.4503 319° Northwest 460 529 40,000  Level FlightAware Transoceanic
02:04PM 18.2280 140.4356 319° Northwest 457 526 40,000  Level FlightAware Transoceanic
02:05PM 18.3242 140.3468 319° Northwest 457 526 40,000  Level FlightAware Transoceanic
02:06PM 18.4204 140.2578 319° Northwest 457 526 40,000  Level FlightAware Transoceanic
02:07PM 18.5165 140.1688 319° Northwest 457 526 40,000  Level FlightAware Transoceanic
02:08PM 18.6126 140.0797 319° Northwest 457 526 40,000  Level FlightAware Transoceanic
02:09PM 18.7086 139.9904 319° Northwest 457 526 40,000  Level FlightAware Transoceanic
02:10PM 18.8046 139.9011 319° Northwest 457 526 40,000  Level FlightAware Transoceanic
02:11PM 18.9005 139.8116 319° Northwest 457 526 40,000  Level FlightAware Transoceanic
02:12PM 18.9964 139.7221 319° Northwest 457 526 40,000  Level FlightAware Transoceanic
02:12PM 18.9667 139.7667 318° Northwest 458 527 40,000  Level Oakland Oceanic (ODAPS)
02:13PM 19.0923 139.6324 319° Northwest 457 526 40,000  Level FlightAware Transoceanic
02:14PM 19.1881 139.5427 318° Northwest 457 526 40,000  Level FlightAware Transoceanic
02:15PM 19.2839 139.4528 318° Northwest 457 526 40,000  Level FlightAware Transoceanic
02:16PM 19.3796 139.3628 318° Northwest 457 526 40,000  Level FlightAware Transoceanic
02:17PM 19.4753 139.2728 318° Northwest 457 526 40,000  Level FlightAware Transoceanic
02:18PM 19.5498 139.2146 318° Northwest 458 527 40,000  Level FlightAware Transoceanic
02:19PM 19.6468 139.1222 318° Northwest 458 527 40,000  Level FlightAware Transoceanic
02:20PM 19.7438 139.0297 318° Northwest 458 527 40,000  Level FlightAware Transoceanic
02:21PM 19.8407 138.9371 318° Northwest 458 527 40,000  Level FlightAware Transoceanic
02:22PM 19.9376 138.8444 318° Northwest 458 527 40,000  Level FlightAware Transoceanic
02:23PM 20.0344 138.7515 318° Northwest 458 527 40,000  Level FlightAware Transoceanic
02:24PM 20.1312 138.6586 318° Northwest 458 527 40,000  Level FlightAware Transoceanic
02:25PM 20.2279 138.5655 318° Northwest 458 527 40,000  Level FlightAware Transoceanic
02:26PM 20.3246 138.4723 318° Northwest 458 527 40,000  Level FlightAware Transoceanic
02:26PM 20.2667 138.5333 318° Northwest 451 519 40,000  Level Oakland Oceanic (ODAPS)
02:27PM 20.4212 138.3790 318° Northwest 458 527 40,000  Level FlightAware Transoceanic
02:28PM 20.5178 138.2856 318° Northwest 458 527 40,000  Level FlightAware Transoceanic
02:29PM 20.6144 138.1920 318° Northwest 458 527 40,000  Level FlightAware Transoceanic
02:30PM 20.7108 138.0984 318° Northwest 458 527 40,000  Level FlightAware Transoceanic
02:31PM 20.8073 138.0046 318° Northwest 458 527 40,000  Level FlightAware Transoceanic
02:32PM 20.8169 137.9965 317° Northwest 451 519 40,000  Level FlightAware Transoceanic
02:33PM 20.9085 137.9066 317° Northwest 451 519 40,000  Level FlightAware Transoceanic
02:34PM 21.0000 137.8167 330° Northwest 451 519 40,000  Level FlightAware Transoceanic
02:35PM 21.1131 137.7481 330° Northwest 451 519 40,000  Level FlightAware Transoceanic
02:36PM 21.2262 137.6794 330° Northwest 451 519 40,000  Level FlightAware Transoceanic
02:37PM 21.3392 137.6105 330° Northwest 451 519 40,000  Level FlightAware Transoceanic
02:38PM 21.4522 137.5416 330° Northwest 451 519 40,000  Level FlightAware Transoceanic
02:39PM 21.5652 137.4726 330° Northwest 451 519 40,000  Level FlightAware Transoceanic
02:40PM 21.6781 137.4035 330° Northwest 451 519 40,000  Level FlightAware Transoceanic
02:41PM 21.7911 137.3342 330° Northwest 451 519 40,000  Level FlightAware Transoceanic
02:42PM 21.9039 137.2649 330° Northwest 451 519 40,000  Level FlightAware Transoceanic
02:43PM 22.0168 137.1954 330° Northwest 451 519 40,000  Level FlightAware Transoceanic
02:44PM 22.1297 137.1259 330° Northwest 451 519 40,000  Level FlightAware Transoceanic
02:45PM 22.2425 137.0562 330° Northwest 451 519 40,000  Level FlightAware Transoceanic
02:46PM 22.3552 136.9864 330° Northwest 451 519 40,000  Level FlightAware Transoceanic
02:47PM 22.4680 136.9165 330° Northwest 451 519 40,000  Level FlightAware Transoceanic
02:48PM 22.5807 136.8465 330° Northwest 451 519 40,000  Level FlightAware Transoceanic
02:49PM 22.6934 136.7763 330° Northwest 451 519 40,000  Level FlightAware Transoceanic
02:50PM 22.8060 136.7061 330° Northwest 451 519 40,000  Level FlightAware Transoceanic
02:51PM 22.9187 136.6357 330° Northwest 451 519 40,000  Level FlightAware Transoceanic
02:52PM 23.0313 136.5652 330° Northwest 451 519 40,000  Level FlightAware Transoceanic
02:53PM 23.1438 136.4946 330° Northwest 451 519 40,000  Level FlightAware Transoceanic
02:54PM 23.2563 136.4239 330° Northwest 451 519 40,000  Level FlightAware Transoceanic
02:55PM 23.3689 136.3531 330° Northwest 451 519 40,000  Level FlightAware Transoceanic
02:56PM 23.4813 136.2821 330° Northwest 451 519 40,000  Level FlightAware Transoceanic
02:57PM 23.5938 136.2110 330° Northwest 451 519 40,000  Level FlightAware Transoceanic
02:58PM 23.7062 136.1398 330° Northwest 451 519 40,000  Level FlightAware Transoceanic
02:59PM 23.8185 136.0685 330° Northwest 451 519 40,000  Level FlightAware Transoceanic
03:00PM 23.9309 135.9971 330° Northwest 451 519 40,000  Level FlightAware Transoceanic
03:01PM 24.0432 135.9255 330° Northwest 451 519 40,000  Level FlightAware Transoceanic
03:02PM 24.1554 135.8538 330° Northwest 451 519 40,000  Level FlightAware Transoceanic
03:03PM 24.2677 135.7820 330° Northwest 451 519 40,000  Level FlightAware Transoceanic
03:04PM 24.3799 135.7100 330° Northwest 451 519 40,000  Level FlightAware Transoceanic
03:05PM 24.4921 135.6379 330° Northwest 451 519 40,000  Level FlightAware Transoceanic
03:06PM 24.6042 135.5657 330° Northwest 451 519 40,000  Level FlightAware Transoceanic
03:07PM 24.7163 135.4934 330° Northwest 451 519 40,000  Level FlightAware Transoceanic
03:08PM 24.8284 135.4209 330° Northwest 451 519 40,000  Level FlightAware Transoceanic
03:09PM 24.9404 135.3483 330° Northwest 451 519 40,000  Level FlightAware Transoceanic
03:10PM 25.0524 135.2756 330° Northwest 451 519 40,000  Level FlightAware Transoceanic
03:11PM 25.1643 135.2027 329° Northwest 451 519 40,000  Level FlightAware Transoceanic
03:12PM 25.2763 135.1297 329° Northwest 451 519 40,000  Level FlightAware Transoceanic
03:13PM 25.3881 135.0566 329° Northwest 451 519 40,000  Level FlightAware Transoceanic
03:14PM 25.4895 134.9786 325° Northwest  Level FlightAware Approximate
03:15PM 25.4844 134.9827 329° Northwest  Level FlightAware Approximate
03:16PM 25.5906 134.9131 329° Northwest  Level FlightAware Approximate
03:17PM 25.6968 134.8434 329° Northwest  Level FlightAware Approximate
03:18PM 25.8029 134.7735 329° Northwest  Level FlightAware Approximate
03:19PM 25.9091 134.7036 329° Northwest  Level FlightAware Approximate
03:20PM 26.0152 134.6335 329° Northwest  Level FlightAware Approximate
03:21PM 26.1212 134.5633 329° Northwest  Level FlightAware Approximate
03:22PM 26.2272 134.4929 329° Northwest  Level FlightAware Approximate
03:23PM 26.3326 134.4214 329° Northwest  Level FlightAware Approximate
03:24PM 26.4380 134.3499 329° Northwest  Level FlightAware Approximate
03:25PM 26.5434 134.2782 329° Northwest  Level FlightAware Approximate
03:26PM 26.6488 134.2063 329° Northwest  Level FlightAware Approximate
03:27PM 26.7541 134.1343 329° Northwest  Level FlightAware Approximate
03:28PM 26.8594 134.0622 329° Northwest  Level FlightAware Approximate
03:29PM 26.9646 133.9900 329° Northwest  Level FlightAware Approximate
03:30PM 27.0698 133.9176 329° Northwest  Level FlightAware Approximate
03:31PM 27.1750 133.8451 328° Northwest  Level FlightAware Approximate
03:32PM 27.2801 133.7725 328° Northwest  Level FlightAware Approximate
03:33PM 27.3852 133.6997 328° Northwest  Level FlightAware Approximate
03:34PM 27.4902 133.6268 328° Northwest  Level FlightAware Approximate
03:35PM 27.5952 133.5537 328° Northwest  Level FlightAware Approximate
03:36PM 27.7002 133.4805 328° Northwest  Level FlightAware Approximate
03:37PM 27.8052 133.4072 328° Northwest  Level FlightAware Approximate
03:38PM 27.9101 133.3337 328° Northwest  Level FlightAware Approximate
03:39PM 28.0149 133.2601 328° Northwest  Level FlightAware Approximate
03:40PM 28.1197 133.1863 328° Northwest  Level FlightAware Approximate
03:41PM 28.2245 133.1124 328° Northwest  Level FlightAware Approximate
03:42PM 28.3293 133.0383 328° Northwest  Level FlightAware Approximate
03:43PM 28.4340 132.9642 328° Northwest  Level FlightAware Approximate
03:44PM 28.5388 132.8900 328° Northwest  Level FlightAware Approximate
03:45PM 28.6435 132.8157 328° Northwest  Level FlightAware Approximate
03:46PM 28.7482 132.7413 328° Northwest  Level FlightAware Approximate
03:47PM 28.8529 132.6667 328° Northwest  Level FlightAware Approximate
03:48PM 28.9575 132.5919 328° Northwest  Level FlightAware Approximate
03:49PM 29.0620 132.5170 328° Northwest  Level FlightAware Approximate
03:50PM 29.1665 132.4420 328° Northwest  Level FlightAware Approximate
03:51PM 29.2710 132.3668 328° Northwest  Level FlightAware Approximate
03:52PM 29.3755 132.2914 328° Northwest  Level FlightAware Approximate
03:53PM 29.4799 132.2159 328° Northwest  Level FlightAware Approximate
03:54PM 29.5842 132.1402 328° Northwest  Level FlightAware Approximate
03:55PM 29.6882 132.0638 327° Northwest  Level FlightAware Approximate
03:56PM 29.7920 131.9870 327° Northwest  Level FlightAware Approximate
03:57PM 29.8958 131.9101 327° Northwest  Level FlightAware Approximate
03:58PM 29.9995 131.8329 327° Northwest  Level FlightAware Approximate
03:59PM 30.1032 131.7557 327° Northwest  Level FlightAware Approximate
04:00PM 30.2069 131.6783 327° Northwest  Level FlightAware Approximate
04:01PM 30.3108 131.6013 327° Northwest  Level FlightAware Approximate
04:02PM 30.4147 131.5242 327° Northwest  Level FlightAware Approximate
04:03PM 30.5186 131.4470 327° Northwest  Level FlightAware Approximate
04:04PM 30.6224 131.3695 327° Northwest  Level FlightAware Approximate
04:05PM 30.7262 131.2919 327° Northwest  Level FlightAware Approximate
04:06PM 30.8300 131.2142 327° Northwest  Level FlightAware Approximate
04:07PM 30.9336 131.1363 327° Northwest  Level FlightAware Approximate
04:07PM 30.9220 130.8740 327° Northwest 459 528 40,000  Level FlightAware
04:08PM 31.0373 131.0582 327° Northwest  Level FlightAware Approximate
04:08PM 31.0010 130.8440 342° North 460 529 40,000  Level FlightAware
04:09PM 31.0810 130.8140 342° North 461 531 40,000 60 Level FlightAware
04:09PM 31.1740 130.7790 342° North 461 531 40,100 60 Climbing FlightAware
04:10PM 31.2570 130.7490 343° North 461 531 40,100  Level FlightAware
04:11PM 31.3490 130.7140 342° North 459 528 40,100  Level FlightAware
04:11PM 31.4300 130.6840 342° North 456 525 40,100 -120 Level FlightAware
04:12PM 31.5090 130.6540 342° North 454 522 40,000 -120 Descending FlightAware
04:13PM 31.5980 130.6200 342° North 453 521 40,000  Level FlightAware
04:14PM 31.6800 130.5890 342° North 454 522 40,000  Level FlightAware
04:14PM 31.7590 130.5590 342° North 456 525 40,000 60 Level FlightAware
04:15PM 31.8490 130.5240 342° North 458 527 40,100 60 Climbing FlightAware
04:16PM 31.9310 130.4920 342° North 459 528 40,100  Level FlightAware
04:16PM 32.0100 130.4610 342° North 460 529 40,100  Level FlightAware
04:19PM 32.2375 130.2817 326° Northwest  Level FlightAware Approximate
04:20PM 32.3400 130.2005 326° Northwest  Level FlightAware Approximate
04:21PM 32.4425 130.1192 326° Northwest  Level FlightAware Approximate
04:22PM 32.5538 130.0481 333° Northwest  Level FlightAware Approximate
04:23PM 32.6641 129.9823 333° Northwest  Level FlightAware Approximate
04:24PM 32.7743 129.9163 333° Northwest  Level FlightAware Approximate
04:25PM 32.8844 129.8501 333° Northwest  Level FlightAware Approximate
04:26PM 32.9946 129.7838 333° Northwest  Level FlightAware Approximate
04:27PM 33.1047 129.7173 333° Northwest  Level FlightAware Approximate
04:28PM 33.2145 129.6503 333° Northwest  Level FlightAware Approximate
04:29PM 33.3243 129.5829 333° Northwest  Level FlightAware Approximate
04:29PM 33.4090 129.8470 333° Northwest 428 493 40,100  Level FlightAware
04:29PM 33.4830 129.8130 339° North 430 495 40,100  Level FlightAware
04:30PM 33.5550 129.7790 339° North 430 495 40,100 -120 Level FlightAware
04:31PM 33.6410 129.7400 339° North 429 494 40,000 -120 Descending FlightAware
04:31PM 33.7150 129.7050 339° North 428 493 40,000  Level FlightAware
04:32PM 33.7990 129.6670 339° North 426 490 40,000  Level FlightAware
04:33PM 33.8720 129.6320 338° Northwest 426 490 40,000  Level FlightAware
04:33PM 33.9460 129.5980 339° North 424 488 40,000  Level FlightAware
04:34PM 34.0280 129.5600 339° North 425 489 40,000  Level FlightAware
04:35PM 34.1020 129.5260 339° North 426 490 40,000  Level FlightAware
04:36PM 34.1830 129.4880 339° North 430 495 40,000 60 Level FlightAware
04:36PM 34.2590 129.4520 339° North 434 499 40,100 60 Climbing FlightAware
04:37PM 34.3440 129.4120 339° North 436 502 40,100  Level FlightAware
04:38PM 34.4200 129.3760 339° North 435 501 40,100  Level FlightAware
04:38PM 34.4940 129.3420 339° North 432 497 40,100 -120 Level FlightAware
04:39PM 34.5790 129.3020 339° North 431 496 40,000 -120 Descending FlightAware
04:40PM 34.6530 129.2670 339° North 428 493 40,000  Level FlightAware
04:40PM 34.7260 129.2320 338° Northwest 408 470 40,000  Level FlightAware
04:41PM 34.7940 129.1910 334° Northwest 396 456 40,000  Level FlightAware
04:42PM 34.8640 129.1510 335° Northwest 399 459 40,000  Level FlightAware
04:42PM 34.9290 129.1130 334° Northwest 390 449 40,000  Level FlightAware
04:43PM 34.9930 129.0760 335° Northwest 392 451 40,000  Level FlightAware
04:44PM 35.0670 129.0320 334° Northwest 392 451 40,000  Level FlightAware
04:45PM 35.1590 128.9700 331° Northwest 389 448 40,000  Level FlightAware
04:46PM 35.2460 128.9090 330° Northwest 391 450 40,000  Level FlightAware
04:46PM 35.3090 128.8650 330° Northwest 391 450 40,000  Level FlightAware
04:47PM 35.3620 128.8270 330° Northwest 391 450 40,000  Level FlightAware
04:48PM 35.4160 128.7890 330° Northwest 391 450 40,000  Level FlightAware
04:48PM 35.4690 128.7520 330° Northwest 391 450 40,000  Level FlightAware
04:49PM 35.5220 128.7140 330° Northwest 391 450 40,000  Level FlightAware
04:50PM 35.5890 128.6670 330° Northwest 391 450 40,000  Level FlightAware
04:51PM 35.6420 128.6290 330° Northwest 391 450 40,000  Level FlightAware
04:51PM 35.6950 128.5910 330° Northwest 391 450 40,000  Level FlightAware
04:52PM 35.7480 128.5530 330° Northwest 391 450 40,000  Level FlightAware
04:53PM 35.8020 128.5150 330° Northwest 391 450 40,000  Level FlightAware
04:53PM 35.8680 128.4680 330° Northwest 391 450 40,000  Level FlightAware
04:54PM 35.9220 128.4300 330° Northwest 391 450 40,000  Level FlightAware
04:55PM 35.9750 128.3920 330° Northwest 391 450 40,000  Level FlightAware
04:55PM 36.0280 128.3540 330° Northwest 391 450 40,000 -1,980 Level FlightAware
04:58PM 36.2033 128.1283 314° West  Level Estimated
04:59PM 36.2887 128.0178 314° West  Level Estimated
05:00PM 36.3739 127.9071 314° West  Level Estimated
05:01PM 36.4591 127.7962 314° West  Level Estimated
05:02PM 36.5442 127.6850 314° West  Level Estimated
05:03PM 36.6291 127.5735 314° West  Level Estimated
05:04PM 36.7140 127.4618 313° West  Level Estimated
05:05PM 36.7987 127.3499 313° West  Level Estimated
05:06PM 36.8833 127.2377 313° West  Level Estimated
05:06PM 37.0980 127.4990 313° West 340 391 18,000  Level FlightAware
05:07PM 37.1400 127.4240 305° West 337 388 18,000  Level FlightAware
05:07PM 37.1750 127.3620 305° West 336 387 18,000  Level FlightAware
05:08PM 37.2150 127.2890 305° West 334 384 18,000  Level FlightAware
05:09PM 37.2500 127.2270 305° West 327 376 18,000  Level FlightAware
05:10PM 37.2880 127.1560 304° West 320 368 18,000  Level FlightAware
05:10PM 37.3230 127.0910 304° West 324 373 18,000 -240 Level FlightAware
05:11PM 37.3570 127.0310 305° West 312 359 17,700 -2,220 Descending FlightAware
05:12PM 37.3970 126.9590 305° West 334 384 14,900 -2,880 Descending FlightAware
05:12PM 37.4150 126.9060 293° West 305 351 13,900 -1,500 Descending FlightAware
05:13PM 37.3940 126.8310 251° West 273 314 12,900 -1,200 Descending FlightAware
05:14PM 37.3760 126.7630 252° West 250 288 12,100 -600 Descending FlightAware
05:14PM 37.3630 126.7100 253° West 242 278 12,100  Level FlightAware
05:15PM 37.3460 126.6390 253° West 244 281 12,100 -1,200 Level FlightAware
05:16PM 37.3450 126.5810 269° West 245 282 10,200 -2,100 Descending FlightAware
05:16PM 37.3470 126.5530 275° West 245 282 10,000 -900 Descending FlightAware
05:17PM 37.3490 126.5310 277° West 230 265 9,700 -1,380 Descending FlightAware
05:18PM 37.3600 126.4310 278° West 246 283 8,100 -1,200 Descending FlightAware
05:19PM 37.3740 126.3230 279° West 252 290 6,800 -1,080 Descending FlightAware
05:20PM 37.4390 126.2490 318° Northwest 281 323 5,400 -1,080 Descending FlightAware
05:23PM 37.4691 126.4505 79° East  Level Estimated
05:24PM 37.4691 126.4505 335° Northwest  Level Estimated
05:25PM 37.4691 126.4505 335° Northwest  Level Estimated
05:26PM 37.4691 126.4505 335° Northwest  Level Estimated
05:27PM 37.4691 126.4505 335° Northwest  Level Estimated
05:28PM 37.4691 126.4505 335° Northwest  Level Estimated
05:29PM 37.4691 126.4505 335° Northwest  Level Estimated
05:30PM 37.4691 126.4505 335° Northwest  Level Estimated
05:31PM 37.4691 126.4505 335° Northwest  Level Estimated
05:32PM 37.4691 126.4505 335° Northwest  Level Estimated
05:33PM 37.4691 126.4505 335° Northwest  Level Estimated
05:34PM 37.4691 126.4505 335° Northwest  Level Estimated
05:35PM 37.4691 126.4505 335° Northwest  Level Estimated
05:36PM 37.4691 126.4505 335° Northwest  Level Estimated